Time;durP1;ratioP1;P1;durP2;ratioP2;P2;SDS_P1;SDS_P2;PMS_P1;PMS_P2;Temp;Humidity;BMP_temperature;BMP_pressure;BME280_temperature;BME280_humidity;BME280_pressure;Samples;Min_cycle;Max_cycle;Signal;HPM_P1;HPM_P2
2021/12/03 00:00:40;;;;;;;;;;;;;;;2.03;75.05;98659.16;1717119;83;20550;-86
2021/12/03 00:03:07;;;;;;;;;;;;;;;1.94;75.34;98644.37;1685412;82;20170;-85
2021/12/03 00:05:35;;;;;;;;;;;;;;;1.95;75.24;98653.83;1714514;82;20235;-85
2021/12/03 00:08:02;;;;;;;;;;;;;;;1.90;75.45;98649.53;1711810;82;20220;-86
2021/12/03 00:10:31;;;;;;;;;;;;;;;1.86;75.58;98649.45;1713565;83;20181;-85
2021/12/03 00:12:58;;;;;;;;;;;;;;;1.86;75.63;98639.03;1693930;83;21839;-85
2021/12/03 00:15:26;;;;;;;;;;;;;;;1.83;75.70;98636.71;1714752;83;20159;-85
2021/12/03 00:17:52;;;;;;;;;;;;;;;1.76;76.05;98639.86;1712178;83;20484;-84
2021/12/03 00:20:18;;;;;;;;;;;;;;;1.75;76.11;98658.22;1715222;83;20292;-85
2021/12/03 00:22:46;;;;;;;;;;;;;;;1.65;76.61;98642.61;1733043;81;20202;-85
2021/12/03 00:25:14;;;;;;;;;;;;;;;1.66;76.44;98666.34;1704992;81;20972;-86
2021/12/03 00:27:40;;;;;;;;;;;;;;;1.62;76.92;98661.09;1740581;81;20141;-87
2021/12/03 00:30:07;;;;;;;;;;;;;;;1.62;76.93;98666.30;1736367;81;20944;-85
2021/12/03 00:32:33;;;;;;;;;;;;;;;1.63;76.76;98677.03;1765072;80;20164;-85
2021/12/03 00:35:01;;;;;;;;;;;;;;;1.63;77.03;98671.82;1756602;81;20173;-86
2021/12/03 00:37:27;;;;;;;;;;;;;;;1.64;76.87;98679.98;1753487;80;21168;-86
2021/12/03 00:39:52;;;;;;;;;;;;;;;1.70;76.84;98670.82;1754146;81;20924;-86
2021/12/03 00:42:19;;;;;;;;;;;;;;;1.70;76.81;98687.25;1753888;81;20264;-87
2021/12/03 00:44:50;;;;;;;;;;;;;;;1.65;76.86;98692.05;1755755;81;20148;-87
2021/12/03 00:47:15;;;;;;;;;;;;;;;1.68;77.03;98680.06;1753059;81;20183;-84
2021/12/03 00:49:41;;;;;;;;;;;;;;;1.65;77.28;98711.56;1747764;81;20204;-85
2021/12/03 00:52:07;;;;;;;;;;;;;;;1.63;77.35;98699.14;1752959;81;20459;-85
2021/12/03 00:54:35;;;;;;;;;;;;;;;1.70;77.08;98691.15;1754456;80;20293;-85
2021/12/03 00:57:03;;;;;;;;;;;;;;;1.61;77.17;98703.67;1754860;81;20197;-86
2021/12/03 00:59:28;;;;;;;;;;;;;;;1.57;77.50;98702.28;1748460;80;20225;-86
2021/12/03 01:01:56;;;;;;;;;;;;;;;1.60;77.54;98704.61;1747866;81;21922;-85
2021/12/03 01:04:23;;;;;;;;;;;;;;;1.62;77.70;98700.12;1740990;81;20205;-86
2021/12/03 01:06:50;;;;;;;;;;;;;;;1.50;78.18;98711.59;1755093;81;20178;-82
2021/12/03 01:09:18;;;;;;;;;;;;;;;1.52;78.34;98701.88;1752591;81;20190;-84
2021/12/03 01:11:45;;;;;;;;;;;;;;;1.54;78.55;98707.75;1739928;81;20172;-86
2021/12/03 01:14:15;;;;;;;;;;;;;;;1.51;79.00;98701.06;1749433;81;21132;-85
2021/12/03 01:16:45;;;;;;;;;;;;;;;1.52;79.16;98701.88;1755373;81;20168;-86
2021/12/03 01:19:11;;;;;;;;;;;;;;;1.57;79.21;98707.48;1748820;81;20609;-87
2021/12/03 01:21:39;;;;;;;;;;;;;;;1.42;79.77;98699.27;1731732;81;20164;-83
2021/12/03 01:24:07;;;;;;;;;;;;;;;1.37;80.29;98719.16;1746553;80;20155;-86
2021/12/03 01:26:34;;;;;;;;;;;;;;;1.37;80.55;98717.87;1747238;81;20569;-86
2021/12/03 01:29:00;;;;;;;;;;;;;;;1.42;80.51;98713.56;1750826;81;20153;-86
2021/12/03 01:31:25;;;;;;;;;;;;;;;1.38;80.89;98723.42;1732760;81;20623;-85
2021/12/03 01:33:51;;;;;;;;;;;;;;;1.40;80.86;98718.09;1745653;80;20150;-86
2021/12/03 01:36:18;;;;;;;;;;;;;;;1.50;80.67;98721.52;1747324;81;20474;-88
2021/12/03 01:38:43;;;;;;;;;;;;;;;1.45;80.87;98716.39;1749304;81;21367;-86
2021/12/03 01:41:11;;;;;;;;;;;;;;;1.38;81.00;98722.13;1744472;81;20851;-86
2021/12/03 01:43:37;;;;;;;;;;;;;;;1.46;80.86;98722.76;1752137;80;20191;-86
2021/12/03 01:46:05;;;;;;;;;;;;;;;1.51;80.82;98735.34;1721345;81;20196;-86
2021/12/03 01:48:32;;;;;;;;;;;;;;;1.43;81.07;98734.24;1745975;80;20222;-84
2021/12/03 01:51:04;;;;;;;;;;;;;;;1.48;80.89;98744.25;1749834;81;20180;-84
2021/12/03 01:53:32;;;;;;;;;;;;;;;1.50;80.98;98740.22;1749201;81;20375;-84
2021/12/03 01:56:01;;;;;;;;;;;;;;;1.38;81.26;98759.84;1748472;81;21032;-86
2021/12/03 01:58:26;;;;;;;;;;;;;;;1.35;81.64;98747.09;1746456;81;20137;-87
2021/12/03 02:00:54;;;;;;;;;;;;;;;1.28;82.17;98759.45;1744283;81;20481;-85
2021/12/03 02:03:22;;;;;;;;;;;;;;;1.26;82.52;98771.28;1723011;81;21261;-85
2021/12/03 02:05:49;;;;;;;;;;;;;;;1.30;82.51;98764.84;1751227;80;20437;-85
2021/12/03 02:08:15;;;;;;;;;;;;;;;1.31;82.60;98765.20;1752335;80;20224;-85
2021/12/03 02:10:41;;;;;;;;;;;;;;;1.30;82.74;98775.25;1751022;79;20423;-85
2021/12/03 02:13:10;;;;;;;;;;;;;;;1.33;82.84;98768.48;1759831;79;20606;-84
2021/12/03 02:15:38;;;;;;;;;;;;;;;1.25;83.28;98770.93;1752101;80;20539;-85
2021/12/03 02:18:07;;;;;;;;;;;;;;;1.26;83.50;98777.79;1757490;80;20131;-86
2021/12/03 02:20:33;;;;;;;;;;;;;;;1.21;83.83;98769.53;1752836;81;20173;-85
2021/12/03 02:22:59;;;;;;;;;;;;;;;1.24;83.94;98790.08;1743452;81;20181;-85
2021/12/03 02:25:29;;;;;;;;;;;;;;;1.26;83.83;98798.59;1744989;80;20229;-85
2021/12/03 02:27:56;;;;;;;;;;;;;;;1.39;83.58;98784.87;1750905;81;20558;-85
2021/12/03 02:30:24;;;;;;;;;;;;;;;1.41;83.46;98805.55;1741734;81;20549;-85
2021/12/03 02:32:55;;;;;;;;;;;;;;;1.40;83.64;98794.81;1745227;81;20138;-85
2021/12/03 02:35:22;;;;;;;;;;;;;;;1.30;84.13;98806.95;1747805;81;20212;-84
2021/12/03 02:37:48;;;;;;;;;;;;;;;1.34;84.28;98790.95;1749125;81;20186;-85
2021/12/03 02:40:20;;;;;;;;;;;;;;;1.41;84.08;98794.69;1744763;81;22027;-85
2021/12/03 02:42:45;;;;;;;;;;;;;;;1.41;84.00;98803.79;1755356;81;20149;-86
2021/12/03 02:45:14;;;;;;;;;;;;;;;1.48;83.93;98799.36;1749973;81;20442;-87
2021/12/03 02:47:40;;;;;;;;;;;;;;;1.52;83.69;98813.73;1745814;81;20127;-85
2021/12/03 02:50:07;;;;;;;;;;;;;;;1.53;83.89;98816.20;1748134;81;20185;-85
2021/12/03 02:52:36;;;;;;;;;;;;;;;1.50;84.16;98815.66;1722422;81;20508;-85
2021/12/03 02:55:03;;;;;;;;;;;;;;;1.46;84.35;98816.86;1742951;81;20130;-85
2021/12/03 02:57:33;;;;;;;;;;;;;;;1.47;84.35;98818.03;1746209;81;20769;-85
2021/12/03 03:00:01;;;;;;;;;;;;;;;1.50;84.36;98826.06;1746649;81;20152;-86
2021/12/03 03:02:29;;;;;;;;;;;;;;;1.38;84.85;98830.52;1745963;80;20149;-85
2021/12/03 03:04:58;;;;;;;;;;;;;;;1.47;84.71;98834.13;1750040;80;20150;-85
2021/12/03 03:07:24;;;;;;;;;;;;;;;1.41;84.97;98825.90;1739096;81;20225;-85
2021/12/03 03:09:49;;;;;;;;;;;;;;;1.38;85.22;98839.16;1755375;81;20208;-84
2021/12/03 03:12:19;;;;;;;;;;;;;;;1.37;85.41;98838.80;1750616;81;20462;-84
2021/12/03 03:14:50;;;;;;;;;;;;;;;1.37;85.57;98838.80;1747458;81;20207;-84
2021/12/03 03:17:17;;;;;;;;;;;;;;;1.27;86.20;98848.33;1744563;81;21008;-84
2021/12/03 03:19:45;;;;;;;;;;;;;;;1.25;86.31;98841.95;1745298;81;21049;-84
2021/12/03 03:22:12;;;;;;;;;;;;;;;1.29;86.42;98850.34;1744925;80;20123;-84
2021/12/03 03:24:39;;;;;;;;;;;;;;;1.28;86.59;98859.09;1754139;81;21524;-84
2021/12/03 03:27:04;;;;;;;;;;;;;;;1.25;86.89;98861.94;1741332;82;20229;-84
2021/12/03 03:29:31;;;;;;;;;;;;;;;1.23;87.12;98862.55;1768329;81;21168;-83
2021/12/03 03:32:02;;;;;;;;;;;;;;;1.23;87.30;98871.66;1767474;80;20143;-84
2021/12/03 03:34:27;;;;;;;;;;;;;;;1.24;87.33;98881.09;1764765;81;20113;-83
2021/12/03 03:36:56;;;;;;;;;;;;;;;1.24;87.57;98878.48;1765193;80;20184;-84
2021/12/03 03:39:22;;;;;;;;;;;;;;;1.19;87.81;98881.47;1764604;81;20194;-83
2021/12/03 03:41:48;;;;;;;;;;;;;;;1.20;88.04;98892.23;1765214;80;21980;-84
2021/12/03 03:44:16;;;;;;;;;;;;;;;1.24;88.02;98899.30;1765059;79;20159;-85
2021/12/03 03:46:45;;;;;;;;;;;;;;;1.25;88.25;98897.05;1764572;81;20234;-84
2021/12/03 03:49:12;;;;;;;;;;;;;;;1.23;88.40;98905.47;1764654;81;20101;-84
2021/12/03 03:51:40;;;;;;;;;;;;;;;1.15;88.91;98913.05;1767889;81;20148;-84
2021/12/03 03:54:05;;;;;;;;;;;;;;;1.18;88.93;98918.00;1740381;81;22435;-84
2021/12/03 03:56:32;;;;;;;;;;;;;;;1.18;88.91;98920.59;1767770;80;20172;-84
2021/12/03 03:59:00;;;;;;;;;;;;;;;1.30;88.68;98920.89;1769117;80;20146;-85
2021/12/03 04:01:26;;;;;;;;;;;;;;;1.24;88.76;98923.99;1766980;81;20189;-85
2021/12/03 04:03:53;;;;;;;;;;;;;;;1.22;88.87;98922.00;1755485;81;20188;-85
2021/12/03 04:06:19;;;;;;;;;;;;;;;1.22;89.22;98929.33;1745720;81;21365;-86
2021/12/03 04:08:46;;;;;;;;;;;;;;;1.17;89.42;98925.47;1766299;81;20175;-86
2021/12/03 04:11:13;;;;;;;;;;;;;;;1.18;89.32;98916.25;1764986;81;20177;-86
2021/12/03 04:13:40;;;;;;;;;;;;;;;1.17;89.45;98920.27;1766302;81;20145;-85
2021/12/03 04:16:07;;;;;;;;;;;;;;;1.21;89.36;98913.84;1766796;80;20169;-84
2021/12/03 04:18:36;;;;;;;;;;;;;;;1.20;89.22;98922.13;1763386;80;21355;-83
2021/12/03 04:21:06;;;;;;;;;;;;;;;1.22;89.28;98918.11;1766294;81;20153;-84
2021/12/03 04:23:31;;;;;;;;;;;;;;;1.26;89.23;98920.81;1767795;80;20152;-85
2021/12/03 04:25:59;;;;;;;;;;;;;;;1.10;89.79;98924.31;1766125;79;20495;-86
2021/12/03 04:28:24;;;;;;;;;;;;;;;1.17;89.90;98929.38;1760756;80;20127;-85
2021/12/03 04:30:50;;;;;;;;;;;;;;;1.15;90.07;98932.55;1730888;80;20990;-86
2021/12/03 04:33:20;;;;;;;;;;;;;;;1.25;89.40;98943.86;1763834;80;20666;-85
2021/12/03 04:35:48;;;;;;;;;;;;;;;1.24;89.35;98940.90;1756149;80;20115;-85
2021/12/03 04:38:15;;;;;;;;;;;;;;;1.23;89.45;98943.17;1759643;80;20199;-87
2021/12/03 04:40:43;;;;;;;;;;;;;;;1.31;89.36;98939.45;1762704;80;20161;-85
2021/12/03 04:43:10;;;;;;;;;;;;;;;1.29;89.04;98947.86;1764740;80;21169;-85
2021/12/03 04:45:38;;;;;;;;;;;;;;;1.21;89.17;98948.50;1763292;80;20175;-86
2021/12/03 04:48:06;;;;;;;;;;;;;;;1.23;89.10;98948.38;1759898;80;20174;-87
2021/12/03 04:50:38;;;;;;;;;;;;;;;1.13;89.31;98946.16;1756167;80;20522;-86
2021/12/03 04:53:05;;;;;;;;;;;;;;;1.13;89.50;98960.47;1762985;80;20171;-84
2021/12/03 04:55:33;;;;;;;;;;;;;;;1.12;89.54;98957.50;1760843;80;21254;-85
2021/12/03 04:58:00;;;;;;;;;;;;;;;1.13;89.55;98974.77;1760720;80;21082;-85
2021/12/03 05:00:29;;;;;;;;;;;;;;;1.14;89.76;98981.63;1737950;80;20212;-84
2021/12/03 05:02:56;;;;;;;;;;;;;;;1.12;89.79;98973.10;1759440;80;20150;-84
2021/12/03 05:05:25;;;;;;;;;;;;;;;1.15;89.87;98979.36;1762117;80;20175;-84
2021/12/03 05:07:57;;;;;;;;;;;;;;;1.17;89.87;98985.27;1776884;79;21130;-85
2021/12/03 05:10:25;;;;;;;;;;;;;;;1.15;90.17;98989.75;1731656;82;20208;-85
2021/12/03 05:12:51;;;;;;;;;;;;;;;1.12;89.42;98993.91;1744354;81;20184;-85
2021/12/03 05:15:18;;;;;;;;;;;;;;;1.21;88.75;98997.06;1736045;82;20149;-85
2021/12/03 05:17:44;;;;;;;;;;;;;;;1.20;88.55;98996.73;1742574;81;20518;-84
2021/12/03 05:20:10;;;;;;;;;;;;;;;1.35;87.90;98995.48;1746211;81;20984;-85
2021/12/03 05:22:36;;;;;;;;;;;;;;;1.26;87.64;98997.53;1751844;81;20214;-85
2021/12/03 05:25:01;;;;;;;;;;;;;;;1.24;87.63;98998.95;1732345;81;20153;-86
2021/12/03 05:27:29;;;;;;;;;;;;;;;1.30;87.21;99009.31;1734737;81;20192;-87
2021/12/03 05:29:56;;;;;;;;;;;;;;;1.37;86.90;99003.97;1732691;81;20426;-87
2021/12/03 05:32:24;;;;;;;;;;;;;;;1.34;87.50;99005.52;1745524;81;22180;-85
2021/12/03 05:34:50;;;;;;;;;;;;;;;1.28;88.39;99017.72;1731815;81;21204;-85
2021/12/03 05:37:15;;;;;;;;;;;;;;;1.41;88.50;99017.09;1724813;81;20119;-86
2021/12/03 05:39:41;;;;;;;;;;;;;;;1.38;88.58;99015.19;1714345;81;20165;-85
2021/12/03 05:42:11;;;;;;;;;;;;;;;1.38;88.85;99029.04;1715136;81;20127;-85
2021/12/03 05:44:37;;;;;;;;;;;;;;;1.42;88.72;99017.41;1732338;81;20692;-85
2021/12/03 05:47:04;;;;;;;;;;;;;;;1.42;88.57;99029.61;1714318;81;20237;-85
2021/12/03 05:49:30;;;;;;;;;;;;;;;1.38;88.30;99039.45;1726874;80;20171;-85
2021/12/03 05:51:55;;;;;;;;;;;;;;;1.43;88.33;99037.28;1729211;81;20585;-85
2021/12/03 05:54:22;;;;;;;;;;;;;;;1.29;88.46;99042.80;1743259;81;20184;-85
2021/12/03 05:56:48;;;;;;;;;;;;;;;1.29;88.78;99045.84;1730059;81;21146;-83
2021/12/03 05:59:13;;;;;;;;;;;;;;;1.30;88.04;99051.41;1736510;81;20485;-84
2021/12/03 06:01:41;;;;;;;;;;;;;;;1.38;87.76;99042.50;1729464;81;20177;-84
2021/12/03 06:04:06;;;;;;;;;;;;;;;1.32;86.87;99054.25;1685064;81;20205;-87
2021/12/03 06:06:32;;;;;;;;;;;;;;;1.35;86.29;99046.20;1732198;81;20202;-85
2021/12/03 06:08:58;;;;;;;;;;;;;;;1.36;85.86;99049.13;1730439;80;21096;-82
2021/12/03 06:11:26;;;;;;;;;;;;;;;1.39;85.58;99077.98;1728189;81;20265;-83
2021/12/03 06:13:52;;;;;;;;;;;;;;;1.22;85.32;99070.23;1717557;81;20488;-81
2021/12/03 06:16:19;;;;;;;;;;;;;;;1.17;84.41;99076.28;1724668;81;20211;-83
2021/12/03 06:18:46;;;;;;;;;;;;;;;1.31;83.18;99060.39;1721116;81;20247;-84
2021/12/03 06:21:15;;;;;;;;;;;;;;;1.34;81.70;99070.55;1735199;81;21076;-83
2021/12/03 06:23:42;;;;;;;;;;;;;;;1.21;81.57;99064.21;1728481;81;20260;-84
2021/12/03 06:26:11;;;;;;;;;;;;;;;1.35;81.37;99067.45;1713782;81;20597;-81
2021/12/03 06:28:38;;;;;;;;;;;;;;;1.47;81.49;99081.26;1709267;81;20192;-82
2021/12/03 06:31:05;;;;;;;;;;;;;;;1.65;80.44;99069.81;1708242;83;20201;-84
2021/12/03 06:33:31;;;;;;;;;;;;;;;1.54;80.84;99075.89;1695219;83;21158;-85
2021/12/03 06:35:58;;;;;;;;;;;;;;;1.20;82.15;99087.73;1708623;82;20834;-83
2021/12/03 06:38:26;;;;;;;;;;;;;;;1.19;82.69;99084.78;1735031;80;20192;-81
2021/12/03 06:40:56;;;;;;;;;;;;;;;1.20;82.82;99076.03;1746503;80;20176;-83
2021/12/03 06:43:24;;;;;;;;;;;;;;;1.29;83.03;99090.06;1729375;80;20748;-82
2021/12/03 06:45:51;;;;;;;;;;;;;;;1.09;83.13;99088.59;1719094;83;20699;-82
2021/12/03 06:48:21;;;;;;;;;;;;;;;0.96;82.36;99106.91;1713909;81;21049;-87
2021/12/03 06:50:50;;;;;;;;;;;;;;;0.94;82.35;99097.60;1721783;81;20239;-84
2021/12/03 06:53:20;;;;;;;;;;;;;;;0.88;82.35;99114.48;1718157;83;20126;-84
2021/12/03 06:55:53;;;;;;;;;;;;;;;0.88;81.99;99088.50;1719463;83;20094;-88
2021/12/03 06:58:22;;;;;;;;;;;;;;;0.78;80.98;99095.35;1723985;81;20138;-85
2021/12/03 07:00:52;;;;;;;;;;;;;;;0.75;81.15;99115.11;1725108;83;20223;-85
2021/12/03 07:03:23;;;;;;;;;;;;;;;0.69;81.47;99115.92;1721928;81;20455;-84
2021/12/03 07:05:51;;;;;;;;;;;;;;;0.62;81.80;99118.66;1724265;81;20135;-87
2021/12/03 07:08:20;;;;;;;;;;;;;;;0.57;82.33;99138.13;1724780;83;20168;-85
2021/12/03 07:10:48;;;;;;;;;;;;;;;0.54;82.82;99143.08;1719787;83;21083;-85
2021/12/03 07:13:16;;;;;;;;;;;;;;;0.58;82.94;99136.71;1722666;83;20220;-83
2021/12/03 07:15:41;;;;;;;;;;;;;;;0.56;83.58;99150.30;1717939;82;20185;-85
2021/12/03 07:18:09;;;;;;;;;;;;;;;0.52;83.88;99144.97;1721932;83;20548;-84
2021/12/03 07:20:34;;;;;;;;;;;;;;;0.57;84.05;99154.53;1720986;83;20894;-84
2021/12/03 07:23:05;;;;;;;;;;;;;;;0.40;84.77;99154.51;1724434;83;21062;-85
2021/12/03 07:25:33;;;;;;;;;;;;;;;0.38;84.88;99163.37;1733406;80;20140;-84
2021/12/03 07:28:04;;;;;;;;;;;;;;;0.55;84.73;99157.72;1756217;80;20654;-83
2021/12/03 07:30:32;;;;;;;;;;;;;;;0.84;84.18;99184.08;1763037;80;20182;-86
2021/12/03 07:32:58;;;;;;;;;;;;;;;0.95;84.07;99174.61;1750630;80;20243;-89
2021/12/03 07:35:25;;;;;;;;;;;;;;;0.98;83.96;99185.63;1758072;80;21110;-88
2021/12/03 07:37:53;;;;;;;;;;;;;;;1.00;83.85;99178.52;1761831;80;20558;-87
2021/12/03 07:40:22;;;;;;;;;;;;;;;1.05;83.77;99180.28;1754991;80;20153;-84
2021/12/03 07:42:50;;;;;;;;;;;;;;;1.00;84.00;99187.62;1761338;80;20205;-88
2021/12/03 07:45:16;;;;;;;;;;;;;;;1.04;84.35;99195.55;1765910;80;20643;-88
2021/12/03 07:47:43;;;;;;;;;;;;;;;1.07;84.36;99205.70;1764837;80;21107;-86
2021/12/03 07:50:10;;;;;;;;;;;;;;;1.05;84.34;99194.58;1757106;80;20209;-83
2021/12/03 07:52:36;;;;;;;;;;;;;;;1.15;84.23;99201.66;1762004;80;20213;-87
2021/12/03 07:55:03;;;;;;;;;;;;;;;1.21;84.07;99195.98;1762066;80;20167;-87
2021/12/03 07:57:31;;;;;;;;;;;;;;;1.14;83.93;99193.53;1767084;80;20174;-85
2021/12/03 07:59:59;;;;;;;;;;;;;;;1.13;82.71;99206.98;1770668;80;21153;-85
2021/12/03 08:02:28;;;;;;;;;;;;;;;0.85;81.51;99214.31;1768110;80;20905;-85
2021/12/03 08:04:54;;;;;;;;;;;;;;;0.89;81.01;99203.23;1762765;80;20183;-87
2021/12/03 08:07:19;;;;;;;;;;;;;;;0.67;80.79;99208.76;1764141;80;20512;-86
2021/12/03 08:09:48;;;;;;;;;;;;;;;0.75;80.93;99209.47;1765787;80;20325;-88
2021/12/03 08:12:17;;;;;;;;;;;;;;;0.76;80.44;99198.12;1758059;80;22425;-85
2021/12/03 08:14:43;;;;;;;;;;;;;;;0.94;80.33;99210.19;1763877;80;20130;-86
2021/12/03 08:17:10;;;;;;;;;;;;;;;0.90;80.06;99206.16;1764756;80;20180;-90
2021/12/03 08:19:35;;;;;;;;;;;;;;;0.87;80.07;99208.98;1719765;80;20171;-86
2021/12/03 08:22:03;;;;;;;;;;;;;;;0.92;80.02;99209.94;1762343;80;20106;-87
2021/12/03 08:24:28;;;;;;;;;;;;;;;0.88;80.22;99215.86;1764404;80;21088;-86
2021/12/03 08:26:55;;;;;;;;;;;;;;;1.01;79.99;99207.94;1741990;81;20743;-88
2021/12/03 08:29:21;;;;;;;;;;;;;;;1.15;79.58;99213.37;1750239;79;20182;-85
2021/12/03 08:31:48;;;;;;;;;;;;;;;0.84;79.99;99243.02;1753799;79;20129;-89
2021/12/03 08:34:13;;;;;;;;;;;;;;;0.98;79.70;99221.16;1745819;81;20603;-86
2021/12/03 08:36:39;;;;;;;;;;;;;;;0.99;79.92;99218.45;1751709;79;21142;-89
2021/12/03 08:39:06;;;;;;;;;;;;;;;1.00;79.80;99222.72;1751133;79;20143;-86
2021/12/03 08:41:33;;;;;;;;;;;;;;;0.86;79.96;99223.77;1757296;81;20521;-88
2021/12/03 08:43:59;;;;;;;;;;;;;;;0.94;80.05;99220.59;1752033;79;20649;-86
2021/12/03 08:46:31;;;;;;;;;;;;;;;1.07;79.51;99210.91;1754256;81;20133;-86
2021/12/03 08:49:05;;;;;;;;;;;;;;;0.87;80.06;99219.39;1751655;81;20164;-85
2021/12/03 08:51:48;;;;;;;;;;;;;;;1.00;79.79;99225.31;1753360;80;20106;-86
2021/12/03 08:56:49;;;;;;;;;;;;;;;1.27;78.73;99216.80;1755518;79;20519;-85
2021/12/03 08:59:17;;;;;;;;;;;;;;;1.20;78.12;99225.08;1753349;79;20147;-84
2021/12/03 09:01:45;;;;;;;;;;;;;;;1.33;78.12;99218.92;1748583;81;20156;-89
2021/12/03 09:04:13;;;;;;;;;;;;;;;1.21;77.97;99221.99;1756199;79;20441;-87
2021/12/03 09:06:38;;;;;;;;;;;;;;;1.46;77.20;99220.08;1752797;79;20177;-88
2021/12/03 09:09:07;;;;;;;;;;;;;;;1.54;77.13;99216.39;1749741;79;20163;-86
2021/12/03 09:11:34;;;;;;;;;;;;;;;1.44;77.53;99220.20;1760972;79;20189;-86
2021/12/03 09:14:03;;;;;;;;;;;;;;;1.43;77.82;99232.39;1754208;79;21069;-86
2021/12/03 09:16:29;;;;;;;;;;;;;;;1.31;77.94;99219.04;1754022;81;20196;-88
2021/12/03 09:18:55;;;;;;;;;;;;;;;1.32;77.85;99245.41;1747554;79;20517;-88
2021/12/03 09:21:25;;;;;;;;;;;;;;;1.41;77.88;99230.39;1759269;79;20194;-88
2021/12/03 09:26:20;;;;;;;;;;;;;;;1.56;77.63;99221.83;1753376;79;20161;-90
2021/12/03 09:28:53;;;;;;;;;;;;;;;1.62;77.50;99216.63;1757787;79;20126;-85
2021/12/03 09:31:18;;;;;;;;;;;;;;;1.61;77.16;99208.45;1751050;79;20175;-87
2021/12/03 09:33:49;;;;;;;;;;;;;;;1.56;77.39;99214.02;1755867;79;20117;-89
2021/12/03 09:36:11;;;;;;;;;;;;;;;1.81;76.77;99206.86;1748955;81;20715;-87
2021/12/03 09:38:37;;;;;;;;;;;;;;;2.07;75.93;99188.31;1754085;79;21182;-87
2021/12/03 09:41:12;;;;;;;;;;;;;;;1.81;75.89;99189.12;1740670;79;20820;-87
2021/12/03 09:43:41;;;;;;;;;;;;;;;2.00;75.81;99195.78;1748022;79;20213;-86
2021/12/03 09:46:21;;;;;;;;;;;;;;;2.07;75.40;99187.83;1754342;79;20639;-87
2021/12/03 09:51:29;;;;;;;;;;;;;;;2.42;74.68;99178.87;1747302;81;20565;-87
2021/12/03 09:56:38;;;;;;;;;;;;;;;2.31;73.60;99181.06;1749692;79;20130;-89
2021/12/03 10:02:00;;;;;;;;;;;;;;;2.30;73.30;99183.80;1715099;81;20212;-85
2021/12/03 10:08:14;;;;;;;;;;;;;;;2.37;73.24;99171.11;1752871;79;20207;-88
2021/12/03 10:12:44;;;;;;;;;;;;;;;2.58;72.50;99156.28;1754765;79;20273;-87
2021/12/03 10:15:25;;;;;;;;;;;;;;;2.65;72.37;99151.36;1754078;79;20140;-87
2021/12/03 10:20:26;;;;;;;;;;;;;;;2.57;71.83;99153.80;1763260;79;20102;-89
2021/12/03 10:23:38;;;;;;;;;;;;;;;2.74;71.40;99142.77;1770616;79;20201;-87
2021/12/03 10:31:48;;;;;;;;;;;;;;;3.10;70.41;99135.33;1703849;82;20313;-86
2021/12/03 10:39:19;;;;;;;;;;;;;;;2.97;69.92;99141.28;1736449;81;38170;-89
2021/12/03 10:44:31;;;;;;;;;;;;;;;2.98;70.27;99135.09;1736500;82;20138;-89
2021/12/03 10:47:18;;;;;;;;;;;;;;;3.14;69.92;99126.29;1736548;82;20159;-87
2021/12/03 10:49:54;;;;;;;;;;;;;;;3.01;70.20;99140.04;1733643;82;20091;-87
2021/12/03 10:52:36;;;;;;;;;;;;;;;3.11;70.36;99125.71;1737076;82;20123;-90
2021/12/03 10:55:26;;;;;;;;;;;;;;;2.92;70.94;99140.83;1733295;81;20175;-87
2021/12/03 10:58:41;;;;;;;;;;;;;;;3.03;71.18;99134.20;1741989;82;20137;-86
2021/12/03 11:00:59;;;;;;;;;;;;;;;2.91;71.23;99139.20;1723124;82;20592;-91
2021/12/03 11:17:04;;;;;;;;;;;;;;;3.13;71.10;99144.20;1737744;82;20533;-89
2021/12/03 11:58:11;;;;;;;;;;;;;;;3.32;72.18;99163.47;1760213;80;20772;-90
2021/12/03 12:21:53;;;;;;;;;;;;;;;3.51;73.11;99151.77;1770923;80;20498;-87
2021/12/03 12:35:24;;;;;;;;;;;;;;;3.12;75.84;99176.44;1740941;81;20130;-88
2021/12/03 12:40:58;;;;;;;;;;;;;;;3.12;77.03;99180.36;1737426;80;20922;-90
2021/12/03 13:14:47;;;;;;;;;;;;;;;2.72;81.56;99217.67;1764055;80;20179;-89
2021/12/03 13:18:24;;;;;;;;;;;;;;;2.70;82.45;99215.66;1728934;81;20464;-88
2021/12/03 13:27:10;;;;;;;;;;;;;;;2.70;83.36;99219.56;1759848;81;21127;-89
2021/12/03 13:40:32;;;;;;;;;;;;;;;2.59;82.64;99230.89;1767195;80;20521;-89
2021/12/03 14:35:23;;;;;;;;;;;;;;;2.98;76.98;99286.34;1749373;80;20129;-88
2021/12/03 14:37:17;;;;;;;;;;;;;;;2.98;77.15;99286.34;1756500;80;20151;-85
2021/12/03 14:39:46;;;;;;;;;;;;;;;3.09;76.71;99300.61;1753173;80;20193;-85
2021/12/03 14:42:30;;;;;;;;;;;;;;;3.03;76.90;99299.36;1755230;80;20157;-84
2021/12/03 14:44:55;;;;;;;;;;;;;;;3.00;76.93;99295.70;1751208;80;20188;-86
2021/12/03 14:47:54;;;;;;;;;;;;;;;3.16;76.76;99310.88;1751220;80;20174;-86
2021/12/03 14:55:54;;;;;;;;;;;;;;;3.15;76.80;99313.13;1733656;80;20159;-86
2021/12/03 14:58:37;;;;;;;;;;;;;;;3.15;76.84;99313.63;1722779;80;20198;-85
2021/12/03 15:01:14;;;;;;;;;;;;;;;3.18;76.73;99315.48;1748400;80;20118;-87
2021/12/03 15:06:26;;;;;;;;;;;;;;;3.20;76.72;99316.66;1757425;80;20150;-85
2021/12/03 15:19:32;;;;;;;;;;;;;;;;;;1670691;80;20528;-85
2021/12/03 15:24:42;;;;;;;;;;;;;;;3.21;76.32;99328.77;1748403;80;20106;-85
2021/12/03 15:35:08;;;;;;;;;;;;;;;3.23;76.75;99336.82;1667646;81;20169;-87
2021/12/03 15:56:18;;;;;;;;;;;;;;;3.05;77.66;99354.83;1752295;80;20547;-86
2021/12/03 16:04:18;;;;;;;;;;;;;;;3.17;77.34;99369.94;1751771;80;20120;-88
2021/12/03 16:07:00;;;;;;;;;;;;;;;3.31;76.94;99365.34;1746945;80;20160;-88
2021/12/03 16:09:45;;;;;;;;;;;;;;;3.15;77.00;99373.14;1744205;80;20134;-85
2021/12/03 16:12:02;;;;;;;;;;;;;;;3.21;76.98;99379.63;1719115;80;20146;-87
2021/12/03 16:17:27;;;;;;;;;;;;;;;3.06;76.97;99392.16;1747272;80;20306;-86
2021/12/03 16:22:48;;;;;;;;;;;;;;;3.00;77.48;99395.30;1754952;80;20166;-82
2021/12/03 16:44:57;;;;;;;;;;;;;;;2.66;78.93;99403.27;1757639;79;20185;-87
2021/12/03 16:52:34;;;;;;;;;;;;;;;2.65;78.59;99417.23;1759556;79;20165;-85
2021/12/03 16:55:02;;;;;;;;;;;;;;;2.72;78.34;99433.20;1747612;79;20204;-82
2021/12/03 16:57:32;;;;;;;;;;;;;;;2.70;78.47;99429.41;1756018;79;20485;-88
2021/12/03 17:00:00;;;;;;;;;;;;;;;2.69;78.62;99434.30;1735974;80;20254;-86
2021/12/03 17:02:44;;;;;;;;;;;;;;;2.65;78.33;99423.75;1753770;80;21099;-87
2021/12/03 17:29:50;;;;;;;;;;;;;;;2.72;78.21;99449.69;1755038;79;20130;-85
2021/12/03 17:48:22;;;;;;;;;;;;;;;2.80;76.67;99439.47;1739332;80;20156;-85
2021/12/03 17:51:05;;;;;;;;;;;;;;;2.85;76.75;99439.91;1759348;80;20192;-85
2021/12/03 17:56:14;;;;;;;;;;;;;;;2.82;76.19;99429.73;1746897;81;20711;-83
2021/12/03 17:58:48;;;;;;;;;;;;;;;2.91;75.98;99437.78;1733213;81;20124;-85
2021/12/03 18:01:52;;;;;;;;;;;;;;;2.90;75.68;99436.11;1746270;81;20208;-85
2021/12/03 18:04:04;;;;;;;;;;;;;;;2.89;75.61;99443.13;1731403;81;20499;-86
2021/12/03 18:17:45;;;;;;;;;;;;;;;2.60;76.19;99438.94;1744130;80;20517;-88
2021/12/03 18:52:44;;;;;;;;;;;;;;;2.39;73.81;99478.76;1753400;80;20184;-86
2021/12/03 18:55:09;;;;;;;;;;;;;;;2.34;73.74;99479.60;1741699;80;20154;-84
2021/12/03 18:57:39;;;;;;;;;;;;;;;2.25;73.40;99495.95;1764536;80;20223;-88
2021/12/03 19:00:08;;;;;;;;;;;;;;;2.25;72.91;99481.63;1758824;80;20145;-86
2021/12/03 19:02:34;;;;;;;;;;;;;;;2.34;72.56;99493.94;1763349;80;20516;-83
2021/12/03 19:05:05;;;;;;;;;;;;;;;2.23;72.40;99492.64;1765836;80;20154;-84
2021/12/03 19:10:06;;;;;;;;;;;;;;;2.25;72.25;99501.16;1705506;81;20132;-83
2021/12/03 19:12:30;;;;;;;;;;;;;;;2.26;72.06;99495.02;1708224;81;20168;-82
2021/12/03 19:14:57;;;;;;;;;;;;;;;2.33;71.66;99511.80;1741979;80;20233;-86
2021/12/03 19:17:28;;;;;;;;;;;;;;;2.28;71.39;99503.53;1736875;80;20166;-81
2021/12/03 19:20:00;;;;;;;;;;;;;;;2.22;71.35;99513.97;1737316;80;20256;-83
2021/12/03 19:22:28;;;;;;;;;;;;;;;2.31;70.81;99508.50;1725616;80;20104;-83
2021/12/03 19:24:57;;;;;;;;;;;;;;;2.20;70.88;99514.54;1768101;80;20783;-85
2021/12/03 19:27:24;;;;;;;;;;;;;;;2.17;70.58;99516.08;1754270;80;20142;-83
2021/12/03 19:29:54;;;;;;;;;;;;;;;2.34;70.29;99510.87;1762478;80;20202;-82
2021/12/03 19:32:23;;;;;;;;;;;;;;;2.21;69.87;99525.33;1759055;79;20984;-83
2021/12/03 19:34:52;;;;;;;;;;;;;;;2.37;69.38;99518.45;1764811;80;20130;-82
2021/12/03 19:37:18;;;;;;;;;;;;;;;2.36;69.75;99515.47;1759740;80;20199;-83
2021/12/03 19:39:51;;;;;;;;;;;;;;;2.31;69.33;99534.55;1765428;80;21445;-87
2021/12/03 19:42:21;;;;;;;;;;;;;;;2.48;68.63;99518.43;1760484;80;20168;-83